Time;durP1;ratioP1;P1;durP2;ratioP2;P2;SDS_P1;SDS_P2;PMS_P1;PMS_P2;Temp;Humidity;BMP_temperature;BMP_pressure;BME280_temperature;BME280_humidity;BME280_pressure;Samples;Min_cycle;Max_cycle;Signal;HPM_P1;HPM_P2
2021/08/30 00:00:59;;;;;;;2.00;1.90;;;17.30;99.90;;;;;;5044840;28;20468;-81
2021/08/30 00:03:27;;;;;;;2.03;1.90;;;17.30;99.90;;;;;;5046520;28;21035;-81
2021/08/30 00:05:56;;;;;;;2.20;2.00;;;17.30;1.00;;;;;;5047561;28;20473;-81
2021/08/30 00:08:25;;;;;;;2.30;2.10;;;17.30;99.90;;;;;;5046692;28;21029;-81
2021/08/30 00:10:53;;;;;;;2.00;1.80;;;17.30;99.90;;;;;;5046102;28;21066;-81
2021/08/30 00:13:22;;;;;;;2.30;2.20;;;17.30;99.90;;;;;;5044535;28;21125;-80
2021/08/30 00:15:50;;;;;;;2.33;1.83;;;17.30;87.80;;;;;;5044520;28;20909;-81
2021/08/30 00:18:18;;;;;;;1.87;1.77;;;17.30;99.90;;;;;;5043938;28;20432;-77
2021/08/30 00:20:46;;;;;;;2.20;2.10;;;17.40;99.90;;;;;;5047242;28;20444;-80
2021/08/30 00:23:14;;;;;;;2.10;1.90;;;17.40;99.90;;;;;;5046848;28;20526;-81
2021/08/30 00:25:44;;;;;;;1.90;1.80;;;17.30;99.90;;;;;;5047384;28;20526;-83
2021/08/30 00:28:12;;;;;;;1.90;1.80;;;17.30;99.90;;;;;;5044906;28;20460;-81
2021/08/30 00:30:40;;;;;;;2.67;2.33;;;17.30;99.90;;;;;;5046532;28;21014;-81
2021/08/30 00:33:09;;;;;;;2.10;2.00;;;17.30;99.90;;;;;;5047136;28;20487;-80
2021/08/30 00:35:37;;;;;;;2.17;2.07;;;17.30;99.90;;;;;;5046790;28;20483;-81
2021/08/30 00:38:06;;;;;;;1.87;1.70;;;17.30;99.90;;;;;;5045101;28;20669;-82
2021/08/30 00:40:35;;;;;;;1.47;1.37;;;17.30;63.30;;;;;;5046650;28;20980;-81
2021/08/30 00:43:05;;;;;;;1.60;1.50;;;17.30;99.90;;;;;;5049555;28;20472;-80
2021/08/30 00:45:33;;;;;;;1.50;1.40;;;17.30;1.00;;;;;;5049267;28;20462;-81
2021/08/30 00:48:01;;;;;;;3.30;2.00;;;17.40;1.00;;;;;;5050948;28;20445;-81
2021/08/30 00:50:30;;;;;;;1.80;1.60;;;17.40;1.00;;;;;;5049966;28;20461;-81
2021/08/30 00:52:58;;;;;;;1.50;1.40;;;17.30;99.90;;;;;;5049492;28;20447;-81
2021/08/30 00:55:26;;;;;;;14.43;2.03;;;17.30;99.90;;;;;;5047328;28;21065;-81
2021/08/30 00:57:54;;;;;;;1.50;1.40;;;17.30;99.90;;;;;;5047108;28;20443;-80
2021/08/30 01:00:24;;;;;;;1.70;1.60;;;17.40;99.90;;;;;;5045839;28;20486;-80
2021/08/30 01:02:52;;;;;;;2.47;1.90;;;17.30;99.90;;;;;;5049236;28;20542;-80
2021/08/30 01:05:22;;;;;;;1.60;1.50;;;17.30;1.00;;;;;;5050588;28;20448;-80
2021/08/30 01:08:04;;;;;;;2.10;2.00;;;17.30;99.90;;;;;;5050544;28;20974;-80
2021/08/30 01:10:41;;;;;;;2.00;1.80;;;17.30;1.00;;;;;;5046734;28;20447;-79
2021/08/30 01:13:13;;;;;;;2.60;2.43;;;17.30;1.00;;;;;;5045577;28;20457;-80
2021/08/30 01:15:44;;;;;;;2.23;2.13;;;17.40;58.30;;;;;;5047781;28;20482;-81
2021/08/30 01:18:18;;;;;;;2.83;2.60;;;17.30;99.90;;;;;;5046888;28;20818;-77
2021/08/30 01:20:59;;;;;;;3.07;2.47;;;17.30;99.90;;;;;;5047641;28;20455;-78
2021/08/30 01:23:28;;;;;;;3.17;2.77;;;17.30;1.00;;;;;;5050190;28;20483;-78
2021/08/30 01:26:00;;;;;;;2.70;2.50;;;17.30;99.90;;;;;;5048992;28;21012;-78
2021/08/30 01:28:35;;;;;;;2.67;2.47;;;17.30;99.90;;;;;;5051138;28;20958;-78
2021/08/30 01:31:10;;;;;;;3.13;2.93;;;17.30;99.90;;;;;;5046429;28;21012;-78
2021/08/30 01:33:41;;;;;;;3.27;2.97;;;17.40;99.90;;;;;;5050343;28;20443;-79
2021/08/30 01:36:10;;;;;;;9.40;3.33;;;17.30;99.90;;;;;;5048017;28;20985;-78
2021/08/30 01:38:45;;;;;;;2.70;2.50;;;17.40;99.90;;;;;;5049549;28;20457;-78
2021/08/30 01:41:16;;;;;;;3.27;3.07;;;17.30;99.90;;;;;;5042754;28;20475;-78
2021/08/30 01:43:46;;;;;;;4.07;3.77;;;17.30;99.90;;;;;;5047759;28;20472;-79
2021/08/30 01:46:16;;;;;;;3.63;3.33;;;17.30;99.90;;;;;;5048862;28;20501;-79
2021/08/30 01:48:49;;;;;;;3.73;2.80;;;17.40;99.90;;;;;;5048485;28;20993;-79
2021/08/30 01:51:19;;;;;;;3.07;2.83;;;17.30;1.00;;;;;;5047832;28;20455;-79
2021/08/30 01:53:48;;;;;;;3.10;2.90;;;17.30;1.00;;;;;;5049607;28;20461;-79
2021/08/30 01:56:17;;;;;;;4.63;3.57;;;17.30;1.00;;;;;;5048444;28;20465;-79
2021/08/30 02:01:34;;;;;;;4.50;3.63;;;17.40;1.00;;;;;;5047436;28;20444;-77
2021/08/30 02:04:05;;;;;;;3.33;3.13;;;17.30;18.70;;;;;;5049392;28;20464;-78
2021/08/30 02:06:34;;;;;;;3.90;3.33;;;17.40;1.60;;;;;;5048298;28;20446;-78
2021/08/30 02:09:04;;;;;;;4.07;3.77;;;17.40;1.00;;;;;;5049378;28;20445;-77
2021/08/30 02:11:40;;;;;;;3.53;3.33;;;17.40;1.00;;;;;;5048347;28;20460;-78
2021/08/30 02:14:11;;;;;;;3.33;3.13;;;17.30;96.10;;;;;;5049270;28;20456;-78
2021/08/30 02:16:41;;;;;;;3.50;3.27;;;17.30;1.00;;;;;;5049089;28;20457;-77
2021/08/30 02:19:18;;;;;;;3.60;3.30;;;17.30;99.90;;;;;;5044987;28;20454;-77
2021/08/30 02:22:08;;;;;;;4.23;3.83;;;17.40;99.90;;;;;;5030130;28;20457;-78
2021/08/30 02:24:42;;;;;;;3.87;3.63;;;17.30;1.00;;;;;;5045157;28;20483;-77
2021/08/30 02:27:16;;;;;;;4.03;3.63;;;17.30;1.00;;;;;;5048350;28;20590;-78
2021/08/30 02:29:48;;;;;;;3.30;3.10;;;17.30;1.00;;;;;;5047128;28;20882;-77
2021/08/30 02:32:18;;;;;;;3.80;3.50;;;17.30;99.90;;;;;;5041077;28;20445;-78
2021/08/30 02:34:51;;;;;;;3.90;3.60;;;17.40;98.50;;;;;;5047335;28;20467;-77
2021/08/30 02:37:22;;;;;;;4.00;3.70;;;17.30;99.90;;;;;;5044818;28;20459;-79
2021/08/30 02:39:52;;;;;;;3.70;3.30;;;17.30;1.00;;;;;;5046184;28;20457;-78
2021/08/30 02:42:21;;;;;;;4.13;3.73;;;17.30;99.90;;;;;;5047974;28;20484;-78
2021/08/30 02:44:50;;;;;;;4.30;4.00;;;17.30;1.00;;;;;;5048859;28;21169;-78
2021/08/30 02:47:20;;;;;;;3.33;3.13;;;17.30;1.00;;;;;;5048715;28;20521;-77
2021/08/30 02:49:51;;;;;;;3.43;3.13;;;17.30;99.90;;;;;;5048662;28;20460;-78
2021/08/30 02:52:21;;;;;;;4.10;3.80;;;17.30;99.90;;;;;;5047084;28;20529;-78
2021/08/30 02:54:52;;;;;;;3.93;3.63;;;17.30;1.00;;;;;;5036082;28;20468;-78
2021/08/30 02:57:22;;;;;;;5.10;4.30;;;17.20;99.90;;;;;;5049226;28;20482;-77
2021/08/30 02:59:51;;;;;;;3.70;3.40;;;17.30;99.90;;;;;;5047028;28;20456;-78
2021/08/30 03:02:21;;;;;;;4.30;3.90;;;17.30;99.90;;;;;;5046208;28;20869;-78
2021/08/30 03:04:51;;;;;;;3.97;3.63;;;17.30;99.90;;;;;;5047142;28;20489;-78
2021/08/30 03:07:20;;;;;;;4.10;3.80;;;17.30;99.90;;;;;;5046439;28;20463;-79
2021/08/30 03:09:48;;;;;;;3.70;3.40;;;17.30;19.90;;;;;;5037733;28;20491;-78
2021/08/30 03:12:18;;;;;;;3.63;3.33;;;17.30;99.90;;;;;;5046403;28;20472;-78
2021/08/30 03:14:47;;;;;;;5.00;4.60;;;17.30;99.90;;;;;;5031858;28;20479;-79
2021/08/30 03:17:16;;;;;;;4.87;3.87;;;17.30;99.90;;;;;;5045296;28;20465;-78
2021/08/30 03:19:47;;;;;;;4.27;3.70;;;17.30;99.90;;;;;;5044382;28;20867;-78
2021/08/30 03:22:18;;;;;;;3.90;3.60;;;17.30;99.90;;;;;;5044407;28;20921;-78
2021/08/30 03:24:47;;;;;;;4.50;4.20;;;17.30;1.00;;;;;;5047867;28;20490;-78
2021/08/30 03:27:16;;;;;;;5.80;5.30;;;17.30;1.00;;;;;;5047465;28;20460;-77
2021/08/30 03:29:45;;;;;;;4.27;3.90;;;17.30;1.00;;;;;;5047740;28;20448;-78
2021/08/30 03:32:16;;;;;;;3.83;3.53;;;17.30;99.90;;;;;;5043808;28;20448;-79
2021/08/30 03:34:45;;;;;;;3.67;3.47;;;17.30;1.00;;;;;;5030573;28;20472;-77
2021/08/30 03:37:13;;;;;;;4.10;3.70;;;17.30;99.90;;;;;;5047034;28;20494;-78
2021/08/30 03:39:44;;;;;;;3.87;3.57;;;17.20;1.00;;;;;;5046620;28;21051;-76
2021/08/30 03:42:13;;;;;;;4.17;2.73;;;17.20;1.00;;;;;;5042291;28;20444;-77
2021/08/30 03:44:42;;;;;;;3.17;2.87;;;17.30;1.00;;;;;;5046756;28;20491;-78
2021/08/30 03:47:11;;;;;;;3.07;2.80;;;17.30;99.90;;;;;;5045415;28;21017;-77
2021/08/30 03:49:40;;;;;;;5.47;3.30;;;17.30;99.90;;;;;;5045351;28;20451;-78
2021/08/30 03:52:10;;;;;;;3.70;3.47;;;17.30;99.90;;;;;;5046291;28;20464;-75
2021/08/30 03:54:38;;;;;;;3.20;3.00;;;17.20;1.00;;;;;;5047846;28;20464;-74
2021/08/30 03:57:08;;;;;;;2.77;2.57;;;17.20;1.00;;;;;;5045971;28;20467;-76
2021/08/30 03:59:38;;;;;;;3.30;3.00;;;17.20;1.00;;;;;;5029228;28;20459;-78
2021/08/30 04:02:08;;;;;;;2.60;2.40;;;17.30;1.00;;;;;;5043715;28;20467;-77
2021/08/30 04:04:39;;;;;;;2.97;2.77;;;17.20;1.00;;;;;;5048237;28;20582;-78
2021/08/30 04:07:09;;;;;;;3.23;2.97;;;17.20;1.00;;;;;;5047255;28;20464;-77
2021/08/30 04:09:38;;;;;;;2.60;2.40;;;17.20;1.00;;;;;;5045468;28;20459;-76
2021/08/30 04:12:09;;;;;;;2.10;2.00;;;17.20;1.00;;;;;;5045134;28;20541;-77
2021/08/30 04:14:37;;;;;;;3.57;3.27;;;17.20;1.00;;;;;;5046021;28;20485;-78
2021/08/30 04:17:06;;;;;;;3.13;2.83;;;17.20;1.00;;;;;;5050669;28;20450;-78
2021/08/30 04:19:35;;;;;;;2.50;2.30;;;17.20;99.90;;;;;;5048925;28;20450;-78
2021/08/30 04:22:04;;;;;;;4.63;2.27;;;17.20;99.90;;;;;;5048988;28;20537;-77
2021/08/30 04:24:32;;;;;;;3.60;2.80;;;17.20;1.00;;;;;;5049307;28;20495;-79
2021/08/30 04:27:00;;;;;;;2.57;2.37;;;17.20;1.00;;;;;;5050131;28;20467;-77
2021/08/30 04:29:32;;;;;;;2.53;2.30;;;17.20;99.90;;;;;;5050200;28;20902;-79
2021/08/30 04:32:00;;;;;;;3.27;2.50;;;17.20;99.90;;;;;;5049949;28;21194;-79
2021/08/30 04:34:29;;;;;;;3.53;3.23;;;17.20;99.90;;;;;;5044273;28;20561;-78
2021/08/30 04:36:57;;;;;;;2.57;2.37;;;17.20;99.90;;;;;;5047415;28;20490;-77
2021/08/30 04:39:25;;;;;;;3.27;3.03;;;17.20;99.90;;;;;;5049727;28;21056;-77
2021/08/30 04:41:53;;;;;;;4.03;3.33;;;17.20;99.90;;;;;;5051029;28;20469;-78
2021/08/30 04:44:21;;;;;;;6.17;3.70;;;17.20;99.90;;;;;;5050077;28;21220;-78
2021/08/30 04:46:51;;;;;;;3.73;3.37;;;17.20;99.90;;;;;;5047817;28;20530;-77
2021/08/30 04:49:19;;;;;;;3.90;3.50;;;17.20;99.90;;;;;;5048112;28;20463;-78
2021/08/30 04:51:47;;;;;;;5.10;4.63;;;17.20;99.90;;;;;;5043946;28;20452;-77
2021/08/30 04:54:19;;;;;;;5.53;5.10;;;17.20;1.00;;;;;;5048874;28;20509;-78
2021/08/30 04:56:47;;;;;;;4.80;4.40;;;17.20;99.90;;;;;;5049133;28;20464;-78
2021/08/30 04:59:16;;;;;;;5.53;5.03;;;17.20;99.90;;;;;;5050195;28;20430;-77
2021/08/30 05:01:44;;;;;;;4.50;4.10;;;17.20;99.90;;;;;;5050020;28;20463;-77
2021/08/30 05:04:14;;;;;;;4.77;4.37;;;17.20;99.90;;;;;;5048103;28;20472;-79
2021/08/30 05:06:42;;;;;;;5.20;4.70;;;17.20;99.90;;;;;;5049680;28;20512;-78
2021/08/30 05:09:11;;;;;;;4.13;3.83;;;17.20;1.00;;;;;;5048530;28;20517;-77
2021/08/30 05:11:39;;;;;;;8.23;7.43;;;17.20;1.00;;;;;;5050148;28;20510;-78
2021/08/30 05:14:07;;;;;;;5.13;4.50;;;17.30;1.00;;;;;;5047302;28;20480;-78
2021/08/30 05:16:35;;;;;;;6.90;5.00;;;17.20;1.00;;;;;;5050204;28;20966;-78
2021/08/30 05:19:04;;;;;;;5.37;4.70;;;17.20;1.00;;;;;;5044112;28;20443;-79
2021/08/30 05:21:33;;;;;;;5.80;5.23;;;17.30;1.00;;;;;;5031608;28;20506;-80
2021/08/30 05:24:02;;;;;;;6.23;5.43;;;17.20;1.00;;;;;;5044001;28;20480;-78
2021/08/30 05:26:30;;;;;;;5.83;5.33;;;17.20;1.00;;;;;;5049146;28;20890;-76
2021/08/30 05:28:58;;;;;;;5.47;4.97;;;17.20;1.00;;;;;;5048446;28;20507;-79
2021/08/30 05:31:26;;;;;;;5.43;4.53;;;17.20;1.00;;;;;;5046580;28;20447;-78
2021/08/30 05:33:57;;;;;;;4.60;4.20;;;17.20;1.00;;;;;;5049621;28;20617;-79
2021/08/30 05:36:25;;;;;;;5.70;4.53;;;17.20;1.00;;;;;;5039949;28;20473;-77
2021/08/30 05:38:56;;;;;;;4.80;4.27;;;17.20;1.00;;;;;;5047030;28;20523;-79
2021/08/30 05:41:24;;;;;;;4.93;4.43;;;17.10;76.40;;;;;;5062513;28;20460;-81
2021/08/30 05:43:52;;;;;;;5.50;4.63;;;17.20;99.90;;;;;;5039804;28;20480;-80
2021/08/30 05:46:20;;;;;;;6.07;4.30;;;17.20;50.00;;;;;;5041837;28;20455;-81
2021/08/30 05:48:50;;;;;;;5.70;5.00;;;17.20;1.00;;;;;;5043081;28;20479;-79
2021/08/30 05:51:18;;;;;;;6.23;5.63;;;17.20;1.00;;;;;;5047132;28;20463;-79
2021/08/30 05:53:47;;;;;;;7.20;6.40;;;17.20;1.00;;;;;;5043660;28;20479;-81
2021/08/30 05:56:16;;;;;;;6.63;6.03;;;17.20;13.30;;;;;;5041778;28;20860;-79
2021/08/30 05:58:44;;;;;;;4.90;4.50;;;17.20;1.00;;;;;;5049597;28;21023;-80
2021/08/30 06:01:12;;;;;;;6.53;5.63;;;17.30;1.00;;;;;;5047183;28;20505;-80
2021/08/30 06:03:41;;;;;;;6.23;5.17;;;17.30;1.00;;;;;;5046592;28;20456;-81
2021/08/30 06:06:09;;;;;;;7.00;6.30;;;17.30;1.00;;;;;;5048670;28;20478;-82
2021/08/30 06:08:38;;;;;;;9.77;5.10;;;17.30;1.00;;;;;;5042891;28;20461;-78
2021/08/30 06:11:06;;;;;;;6.70;6.03;;;17.30;1.00;;;;;;5046929;28;20454;-79
2021/08/30 06:13:35;;;;;;;7.00;5.43;;;17.30;74.70;;;;;;5047134;28;20494;-79
2021/08/30 06:16:04;;;;;;;4.60;4.20;;;17.30;99.90;;;;;;5049017;28;20456;-79
2021/08/30 06:18:32;;;;;;;4.70;4.20;;;17.30;99.90;;;;;;5049926;28;20503;-79
2021/08/30 06:21:00;;;;;;;5.90;4.90;;;17.30;99.90;;;;;;5048274;28;20451;-80
2021/08/30 06:23:30;;;;;;;5.10;4.30;;;17.40;1.00;;;;;;5049623;28;20839;-80
2021/08/30 06:25:59;;;;;;;4.97;4.47;;;17.30;1.00;;;;;;5047202;28;20480;-79
2021/08/30 06:28:27;;;;;;;4.33;3.83;;;17.40;4.50;;;;;;5049890;28;20457;-79
2021/08/30 06:30:57;;;;;;;5.80;5.20;;;17.30;16.40;;;;;;5037748;28;20444;-80
2021/08/30 06:33:25;;;;;;;4.10;3.70;;;17.30;76.60;;;;;;5043339;28;20248;-79
2021/08/30 06:35:53;;;;;;;5.70;3.60;;;17.40;1.00;;;;;;5049109;28;20955;-78
2021/08/30 06:38:22;;;;;;;4.30;3.70;;;17.40;1.00;;;;;;5037352;28;20465;-80
2021/08/30 06:40:50;;;;;;;5.20;3.77;;;17.40;1.00;;;;;;5048736;28;20974;-80
2021/08/30 06:43:18;;;;;;;3.73;3.20;;;17.30;53.60;;;;;;5048837;28;20456;-78
2021/08/30 06:45:46;;;;;;;4.33;3.10;;;17.30;53.70;;;;;;5049412;28;20551;-81
2021/08/30 06:48:16;;;;;;;4.60;3.73;;;17.40;98.90;;;;;;5046822;28;20973;-79
2021/08/30 06:50:44;;;;;;;6.00;4.07;;;17.40;99.90;;;;;;5040666;28;20453;-79
2021/08/30 06:53:13;;;;;;;5.37;4.43;;;17.40;99.90;;;;;;5046222;28;20452;-78
2021/08/30 06:55:41;;;;;;;6.13;4.40;;;17.40;1.00;;;;;;5045931;28;20483;-79
2021/08/30 06:58:09;;;;;;;6.63;5.67;;;17.40;76.50;;;;;;5047494;28;20452;-79
2021/08/30 07:00:37;;;;;;;7.10;4.60;;;17.40;22.00;;;;;;5044906;28;20933;-78
2021/08/30 07:03:07;;;;;;;4.33;3.93;;;17.50;99.90;;;;;;5047715;28;20964;-78
2021/08/30 07:05:36;;;;;;;6.30;4.97;;;17.40;99.90;;;;;;5046130;28;20480;-80
2021/08/30 07:08:05;;;;;;;5.97;5.40;;;17.50;99.90;;;;;;5047350;28;20460;-79
2021/08/30 07:10:33;;;;;;;6.63;5.43;;;17.40;99.90;;;;;;5047416;28;20485;-79
2021/08/30 07:13:01;;;;;;;6.30;5.13;;;17.50;99.90;;;;;;5047502;28;20468;-79
2021/08/30 07:15:29;;;;;;;5.77;5.17;;;17.50;99.90;;;;;;5042970;28;20538;-78
2021/08/30 07:17:58;;;;;;;7.63;6.43;;;17.50;99.90;;;;;;5047846;28;20517;-78
2021/08/30 07:20:29;;;;;;;5.60;4.97;;;17.50;99.90;;;;;;5044307;28;20838;-81
2021/08/30 07:23:00;;;;;;;7.30;5.17;;;17.50;99.90;;;;;;5047165;28;20464;-79
2021/08/30 07:25:28;;;;;;;6.27;5.57;;;17.40;99.90;;;;;;5040157;28;20486;-80
2021/08/30 07:27:56;;;;;;;7.17;5.83;;;17.50;99.90;;;;;;5033032;28;20462;-79
2021/08/30 07:30:24;;;;;;;7.23;5.87;;;17.50;99.90;;;;;;5044368;28;20465;-77
2021/08/30 07:32:52;;;;;;;6.80;6.10;;;17.50;99.90;;;;;;5047466;28;20454;-80
2021/08/30 07:35:22;;;;;;;7.50;6.80;;;17.50;99.90;;;;;;5045997;28;20518;-80
2021/08/30 07:37:50;;;;;;;8.00;6.00;;;17.50;99.90;;;;;;5045033;28;21015;-81
2021/08/30 07:40:19;;;;;;;6.20;5.60;;;17.60;99.90;;;;;;5043125;28;20468;-82
2021/08/30 07:42:50;;;;;;;7.07;5.90;;;17.60;99.90;;;;;;5037424;28;20453;-83
2021/08/30 07:45:19;;;;;;;7.60;5.33;;;17.60;1.00;;;;;;5044004;28;20485;-83
2021/08/30 07:47:47;;;;;;;7.80;5.80;;;17.60;1.00;;;;;;5049232;28;20501;-82
2021/08/30 07:50:16;;;;;;;6.70;5.90;;;17.60;18.30;;;;;;5045001;28;20969;-82
2021/08/30 07:52:44;;;;;;;7.47;5.90;;;17.60;99.90;;;;;;5046889;28;20487;-83
2021/08/30 07:55:13;;;;;;;6.53;5.93;;;17.60;99.90;;;;;;5044186;28;20560;-84
2021/08/30 07:57:43;;;;;;;6.30;5.70;;;17.50;99.90;;;;;;5033768;28;20462;-81
2021/08/30 08:00:13;;;;;;;7.20;6.60;;;17.50;99.90;;;;;;5040395;28;20538;-81
2021/08/30 08:02:41;;;;;;;6.67;5.97;;;17.60;76.60;;;;;;5045789;28;20447;-82
2021/08/30 08:05:10;;;;;;;7.63;6.57;;;17.60;99.90;;;;;;5044685;28;20486;-81
2021/08/30 08:07:39;;;;;;;9.33;5.53;;;17.60;99.90;;;;;;5045595;28;20468;-81
2021/08/30 08:10:08;;;;;;;6.13;5.53;;;17.50;99.90;;;;;;5044406;28;20999;-83
2021/08/30 08:12:36;;;;;;;7.73;5.97;;;17.50;99.90;;;;;;5045930;28;20790;-81
2021/08/30 08:15:07;;;;;;;6.40;5.70;;;17.40;99.90;;;;;;5046443;28;20490;-81
2021/08/30 08:17:36;;;;;;;6.30;5.50;;;17.40;99.90;;;;;;5042446;28;20452;-83
2021/08/30 08:20:06;;;;;;;4.77;4.37;;;17.40;99.90;;;;;;5042579;28;20513;-81
2021/08/30 08:22:42;;;;;;;6.50;5.50;;;17.40;99.90;;;;;;5046644;28;21160;-81
2021/08/30 08:25:11;;;;;;;6.70;5.27;;;17.50;99.90;;;;;;5042273;28;20484;-81
2021/08/30 08:27:40;;;;;;;6.33;5.60;;;17.50;99.90;;;;;;5041868;28;20471;-82
2021/08/30 08:30:11;;;;;;;4.50;4.13;;;17.50;99.90;;;;;;5043961;28;20464;-81
2021/08/30 08:32:41;;;;;;;5.57;5.00;;;17.60;99.90;;;;;;5043363;28;20535;-82
2021/08/30 08:35:10;;;;;;;4.60;4.20;;;17.50;99.90;;;;;;5045034;28;20488;-81
2021/08/30 08:37:38;;;;;;;6.50;5.10;;;17.50;99.90;;;;;;5044508;28;20457;-81
2021/08/30 08:40:08;;;;;;;5.07;4.50;;;17.40;99.90;;;;;;5045538;28;20461;-84
2021/08/30 08:42:38;;;;;;;8.30;6.50;;;17.50;99.90;;;;;;5044680;28;20464;-81
2021/08/30 08:45:08;;;;;;;6.70;4.90;;;17.50;99.90;;;;;;5046257;28;20811;-82
2021/08/30 08:47:39;;;;;;;5.17;4.13;;;17.50;99.90;;;;;;5043418;28;20483;-82
2021/08/30 08:50:10;;;;;;;4.13;3.40;;;17.60;99.90;;;;;;5045051;28;20465;-81
2021/08/30 08:52:41;;;;;;;4.43;4.00;;;17.60;99.90;;;;;;5044649;28;20449;-81
2021/08/30 08:55:10;;;;;;;4.70;4.03;;;17.60;99.90;;;;;;5047031;28;20474;-82
2021/08/30 08:57:39;;;;;;;4.10;3.60;;;17.60;99.90;;;;;;5047221;28;20458;-80
2021/08/30 09:00:09;;;;;;;3.70;3.40;;;17.60;99.90;;;;;;5055856;28;20431;-82
2021/08/30 09:02:39;;;;;;;3.83;3.53;;;17.70;99.90;;;;;;5046964;28;20956;-81
2021/08/30 09:05:20;;;;;;;5.20;4.32;;;17.70;99.90;;;;;;5050872;28;20440;-83
2021/08/30 09:07:48;;;;;;;4.63;4.23;;;17.70;99.90;;;;;;5033135;28;20637;-83
2021/08/30 09:10:18;;;;;;;6.00;3.83;;;17.70;99.90;;;;;;5045884;28;20456;-83
2021/08/30 09:12:48;;;;;;;4.07;3.67;;;17.70;99.90;;;;;;5050135;28;20454;-82
2021/08/30 09:15:20;;;;;;;5.23;4.17;;;17.70;99.90;;;;;;5048975;28;20482;-82
2021/08/30 09:17:50;;;;;;;4.20;3.80;;;17.80;99.90;;;;;;5046042;28;20453;-83
2021/08/30 09:20:20;;;;;;;4.23;3.80;;;17.80;99.90;;;;;;5049851;28;21108;-82
2021/08/30 09:22:49;;;;;;;4.23;3.83;;;17.80;99.90;;;;;;5046971;28;20471;-82
2021/08/30 09:25:18;;;;;;;4.50;3.47;;;17.70;99.90;;;;;;5040512;28;20505;-82
2021/08/30 09:27:50;;;;;;;4.57;4.07;;;17.80;99.90;;;;;;5048725;28;20476;-83
2021/08/30 09:30:25;;;;;;;4.80;4.40;;;17.80;1.00;;;;;;5048204;28;20460;-82
2021/08/30 09:32:55;;;;;;;4.07;3.60;;;17.90;99.90;;;;;;5047959;28;21122;-83
2021/08/30 09:35:25;;;;;;;5.90;4.20;;;17.90;1.00;;;;;;5051313;28;20457;-82
2021/08/30 09:37:53;;;;;;;5.93;4.97;;;17.80;99.90;;;;;;5045473;28;20452;-82
2021/08/30 09:40:24;;;;;;;5.47;4.97;;;17.80;99.90;;;;;;5047214;28;20455;-82
2021/08/30 09:42:54;;;;;;;5.77;5.00;;;17.80;99.90;;;;;;5048681;28;20470;-82
2021/08/30 09:45:26;;;;;;;6.40;5.23;;;17.90;99.90;;;;;;5047717;28;20470;-82
2021/08/30 09:47:59;;;;;;;7.00;6.30;;;17.90;99.90;;;;;;5040754;28;20600;-82
2021/08/30 09:50:29;;;;;;;7.70;6.80;;;17.90;99.90;;;;;;5034333;28;20457;-82
2021/08/30 09:52:58;;;;;;;7.30;6.23;;;17.90;99.90;;;;;;5047738;28;20818;-82
2021/08/30 09:55:28;;;;;;;7.07;6.40;;;17.90;99.90;;;;;;5045345;28;20474;-83
2021/08/30 09:57:57;;;;;;;7.70;6.50;;;18.00;99.90;;;;;;5050418;28;20445;-84
2021/08/30 10:00:25;;;;;;;11.33;7.37;;;17.90;99.90;;;;;;5046055;28;20480;-83
2021/08/30 10:02:58;;;;;;;8.63;7.53;;;17.90;99.90;;;;;;5046103;28;20988;-83
2021/08/30 10:05:29;;;;;;;10.03;7.17;;;17.90;99.90;;;;;;5049474;28;20491;-84
2021/08/30 10:08:00;;;;;;;7.50;6.70;;;17.90;99.90;;;;;;5047931;28;20817;-84
2021/08/30 10:10:30;;;;;;;10.07;7.03;;;18.00;99.90;;;;;;5047069;28;21099;-82
2021/08/30 10:12:59;;;;;;;6.50;5.87;;;17.90;99.90;;;;;;5048930;28;20517;-83
2021/08/30 10:15:29;;;;;;;8.33;7.00;;;18.00;99.90;;;;;;5045468;28;20468;-83
2021/08/30 10:17:59;;;;;;;8.87;7.57;;;18.00;99.90;;;;;;5047116;28;21120;-82
2021/08/30 10:20:33;;;;;;;7.40;6.47;;;18.00;99.90;;;;;;5045053;28;20824;-82
2021/08/30 10:23:06;;;;;;;8.83;6.33;;;18.00;99.90;;;;;;5041814;28;20460;-85
2021/08/30 10:25:36;;;;;;;7.67;6.37;;;17.90;99.90;;;;;;5041426;28;20480;-83
2021/08/30 10:28:06;;;;;;;8.03;6.60;;;17.90;99.90;;;;;;5046235;28;20496;-83
2021/08/30 10:30:36;;;;;;;8.83;6.53;;;17.90;99.90;;;;;;5039302;28;20898;-83
2021/08/30 10:33:08;;;;;;;6.60;5.73;;;17.90;99.90;;;;;;5047315;28;20852;-82
2021/08/30 10:35:38;;;;;;;5.97;5.40;;;17.90;99.90;;;;;;5045335;28;20504;-82
2021/08/30 10:38:09;;;;;;;9.13;6.90;;;18.00;99.90;;;;;;5044184;28;20468;-83
2021/08/30 10:40:39;;;;;;;7.80;6.70;;;17.90;99.90;;;;;;5035841;28;20467;-83
2021/08/30 10:43:10;;;;;;;6.83;6.07;;;17.90;99.90;;;;;;5045425;28;20453;-82
2021/08/30 10:45:41;;;;;;;8.40;6.77;;;17.90;99.90;;;;;;5046612;28;20465;-82
2021/08/30 10:48:13;;;;;;;7.53;6.30;;;18.00;99.90;;;;;;5048017;28;20483;-82
2021/08/30 10:50:44;;;;;;;7.30;6.00;;;18.10;99.90;;;;;;5047582;28;20457;-83
2021/08/30 10:53:17;;;;;;;10.13;6.80;;;18.00;99.90;;;;;;5047344;28;20464;-83
2021/08/30 10:55:47;;;;;;;8.57;7.23;;;18.00;99.90;;;;;;5036986;28;20474;-82
2021/08/30 10:58:20;;;;;;;9.23;7.10;;;18.10;99.90;;;;;;5043716;28;20891;-83
2021/08/30 11:00:50;;;;;;;7.33;6.57;;;18.20;99.90;;;;;;5046044;28;20471;-82
2021/08/30 11:03:29;;;;;;;9.07;6.87;;;18.20;99.90;;;;;;5045144;28;20453;-82
2021/08/30 11:06:06;;;;;;;11.07;6.23;;;18.30;99.90;;;;;;5042833;28;20587;-83
2021/08/30 11:08:35;;;;;;;7.93;6.00;;;18.30;99.90;;;;;;5046424;28;20484;-83
2021/08/30 11:11:14;;;;;;;8.00;7.17;;;18.20;99.90;;;;;;5046515;28;20454;-82
2021/08/30 11:13:57;;;;;;;8.30;6.47;;;18.30;99.90;;;;;;5045751;28;20987;-83
2021/08/30 11:16:26;;;;;;;9.67;7.30;;;18.30;99.90;;;;;;5046888;28;20460;-83
2021/08/30 11:18:58;;;;;;;7.20;6.23;;;18.30;99.90;;;;;;5045156;28;20444;-82
2021/08/30 11:21:37;;;;;;;10.60;7.20;;;18.30;99.90;;;;;;5049247;28;20435;-83
2021/08/30 11:24:08;;;;;;;6.80;6.07;;;18.30;99.90;;;;;;5046384;28;20477;-82
2021/08/30 11:26:38;;;;;;;8.93;7.70;;;18.30;99.90;;;;;;5043990;28;20511;-83
2021/08/30 11:29:08;;;;;;;6.90;6.20;;;18.30;86.60;;;;;;5045147;28;20819;-84
2021/08/30 11:31:41;;;;;;;7.73;6.07;;;18.30;99.90;;;;;;5041618;28;20468;-82
2021/08/30 11:34:22;;;;;;;10.10;7.00;;;18.30;6.60;;;;;;5031668;28;20519;-84
2021/08/30 11:36:51;;;;;;;7.37;6.17;;;18.20;99.90;;;;;;5047128;28;20460;-81
2021/08/30 11:39:21;;;;;;;6.80;6.10;;;18.30;99.90;;;;;;5045211;28;20476;-81
2021/08/30 11:41:54;;;;;;;7.03;5.70;;;18.30;99.90;;;;;;5047849;28;20514;-83
2021/08/30 11:44:23;;;;;;;9.20;6.93;;;18.30;99.90;;;;;;5043763;28;20538;-82
2021/08/30 11:46:55;;;;;;;6.97;6.27;;;18.30;99.90;;;;;;5043523;28;20453;-82
2021/08/30 11:49:28;;;;;;;7.73;6.00;;;18.40;99.90;;;;;;5046374;28;20441;-82
2021/08/30 11:52:00;;;;;;;7.83;5.70;;;18.50;99.90;;;;;;5042832;28;20459;-82
2021/08/30 11:54:30;;;;;;;6.73;6.03;;;18.50;99.90;;;;;;5045480;28;20992;-82
2021/08/30 11:57:01;;;;;;;7.93;5.87;;;18.50;99.90;;;;;;5046489;28;21118;-82
2021/08/30 11:59:31;;;;;;;6.80;6.03;;;18.50;99.90;;;;;;5048527;28;20485;-81
2021/08/30 12:02:01;;;;;;;7.17;6.40;;;18.50;99.90;;;;;;5044130;28;20466;-81
2021/08/30 12:04:32;;;;;;;6.27;5.37;;;18.60;1.00;;;;;;5034515;28;20490;-82
2021/08/30 12:07:03;;;;;;;10.10;7.60;;;18.60;1.00;;;;;;5029899;28;20438;-81
2021/08/30 12:09:40;;;;;;;8.70;6.93;;;18.60;1.00;;;;;;5043990;28;20896;-82
2021/08/30 12:12:16;;;;;;;8.13;6.20;;;18.60;1.00;;;;;;5045572;28;20484;-84
2021/08/30 12:14:56;;;;;;;9.17;6.30;;;18.70;99.90;;;;;;5045239;28;20489;-84
2021/08/30 12:17:25;;;;;;;6.20;5.60;;;18.70;99.90;;;;;;5046383;28;20474;-83
2021/08/30 12:19:56;;;;;;;6.87;5.33;;;18.70;99.90;;;;;;5043087;28;20465;-83
2021/08/30 12:22:27;;;;;;;8.33;5.80;;;18.80;1.00;;;;;;5038782;28;20478;-82
2021/08/30 12:25:12;;;;;;;7.53;6.00;;;18.80;1.00;;;;;;5045839;28;20482;-82
2021/08/30 12:27:42;;;;;;;10.17;6.90;;;18.80;1.00;;;;;;5045754;28;20485;-84
2021/08/30 12:30:17;;;;;;;6.47;5.43;;;18.80;1.00;;;;;;5042652;28;20463;-81
2021/08/30 12:33:06;;;;;;;8.07;7.20;;;18.90;1.00;;;;;;5045927;28;20453;-82
2021/08/30 12:35:37;;;;;;;6.63;5.30;;;18.90;99.90;;;;;;5046273;28;21055;-81
2021/08/30 12:38:09;;;;;;;5.83;5.23;;;18.90;92.70;;;;;;5049983;28;20541;-82
2021/08/30 12:40:39;;;;;;;6.63;6.03;;;18.90;99.90;;;;;;5041902;28;21105;-82
2021/08/30 12:43:07;;;;;;;5.93;5.17;;;18.90;99.90;;;;;;5049147;28;20981;-82
2021/08/30 12:45:36;;;;;;;6.40;5.73;;;18.90;99.90;;;;;;5048418;28;20474;-82
2021/08/30 12:48:06;;;;;;;7.63;5.80;;;19.00;1.00;;;;;;5045769;28;21034;-83
2021/08/30 12:50:37;;;;;;;7.27;5.77;;;19.00;99.90;;;;;;5035378;28;20473;-80
2021/08/30 12:53:06;;;;;;;7.00;4.90;;;19.00;99.90;;;;;;5047754;28;20459;-79
2021/08/30 12:55:35;;;;;;;8.80;5.67;;;19.00;1.00;;;;;;5050009;28;20472;-81
2021/08/30 12:58:04;;;;;;;8.00;5.10;;;18.90;99.90;;;;;;5042515;28;20465;-81
2021/08/30 13:00:32;;;;;;;7.03;5.50;;;18.90;10.10;;;;;;5047221;28;20545;-83
2021/08/30 13:03:01;;;;;;;7.63;5.53;;;18.80;99.90;;;;;;5049675;28;20508;-82
2021/08/30 13:05:32;;;;;;;6.03;5.43;;;18.80;99.90;;;;;;5049638;28;20497;-81
2021/08/30 13:08:02;;;;;;;8.03;6.30;;;18.80;99.90;;;;;;5051840;28;20486;-82